<?xml version="1.0" encoding="UTF-8" standalone="no" ?>
<gpx xmlns="http://www.topografix.com/GPX/1/1" xmlns:xsi="http://www.w3.org/2001/XMLSchema-instance" xsi:schemaLocation="http://www.topografix.com/GPX/1/1 http://www.topografix.com/GPX/1/1/gpx.xsd" version="1.1" creator="VisuGPX - https://www.visugpx.com">
  <metadata>
    <name>VacancesDricouZoe</name>
  </metadata>
  <trk>
    <name><![CDATA[Journal actif: 2021-07-07 14:06]]></name>
    <trkseg>
      <trkpt lat="43.77904" lon="-1.39898">
        <ele>-12.84</ele>
        <time>2021-07-07T16:06:11Z</time>
      </trkpt>
      <trkpt lat="43.77908" lon="-1.4001">
        <ele>-8.51</ele>
        <time>2021-07-07T16:06:21Z</time>
      </trkpt>
      <trkpt lat="43.77911" lon="-1.4002">
        <ele>-8.51</ele>
        <time>2021-07-07T16:06:22Z</time>
      </trkpt>
      <trkpt lat="43.77914" lon="-1.4003">
        <ele>-8.51</ele>
        <time>2021-07-07T16:06:23Z</time>
      </trkpt>
      <trkpt lat="43.77917" lon="-1.40041">
        <ele>-8.51</ele>
        <time>2021-07-07T16:06:24Z</time>
      </trkpt>
      <trkpt lat="43.7792" lon="-1.40051">
        <ele>-8.51</ele>
        <time>2021-07-07T16:06:25Z</time>
      </trkpt>
      <trkpt lat="43.77923" lon="-1.40061">
        <ele>-8.51</ele>
        <time>2021-07-07T16:06:26Z</time>
      </trkpt>
      <trkpt lat="43.77929" lon="-1.4007">
        <ele>-8.51</ele>
        <time>2021-07-07T16:06:27Z</time>
      </trkpt>
      <trkpt lat="43.77941" lon="-1.40086">
        <ele>-8.51</ele>
        <time>2021-07-07T16:06:28Z</time>
      </trkpt>
      <trkpt lat="43.77953" lon="-1.40099">
        <ele>-9</ele>
        <time>2021-07-07T16:06:31Z</time>
      </trkpt>
      <trkpt lat="43.77958" lon="-1.40106">
        <ele>-9</ele>
        <time>2021-07-07T16:06:32Z</time>
      </trkpt>
      <trkpt lat="43.77963" lon="-1.4011">
        <ele>-8.51</ele>
        <time>2021-07-07T16:06:33Z</time>
      </trkpt>
      <trkpt lat="43.77987" lon="-1.40121">
        <ele>-9.48</ele>
        <time>2021-07-07T16:06:40Z</time>
      </trkpt>
      <trkpt lat="43.77983" lon="-1.40131">
        <ele>-9.48</ele>
        <time>2021-07-07T16:06:45Z</time>
      </trkpt>
      <trkpt lat="43.77981" lon="-1.40129">
        <ele>-9.48</ele>
        <time>2021-07-07T16:06:46Z</time>
      </trkpt>
      <trkpt lat="43.77978" lon="-1.40128">
        <ele>-10.44</ele>
        <time>2021-07-07T16:06:47Z</time>
      </trkpt>
      <trkpt lat="43.77971" lon="-1.40124">
        <ele>-11.88</ele>
        <time>2021-07-07T16:06:49Z</time>
      </trkpt>
      <trkpt lat="43.77935" lon="-1.40094">
        <ele>-14.76</ele>
        <time>2021-07-07T16:06:55Z</time>
      </trkpt>
      <trkpt lat="43.77929" lon="-1.40088">
        <ele>-15.72</ele>
        <time>2021-07-07T16:06:56Z</time>
      </trkpt>
      <trkpt lat="43.77919" lon="-1.40067">
        <ele>-16.21</ele>
        <time>2021-07-07T16:06:57Z</time>
      </trkpt>
      <trkpt lat="43.77919" lon="-1.40067">
        <ele>-15.72</ele>
        <time>2021-07-07T16:06:58Z</time>
      </trkpt>
      <trkpt lat="43.7791" lon="-1.40045">
        <ele>-15.24</ele>
        <time>2021-07-07T16:06:59Z</time>
      </trkpt>
      <trkpt lat="43.77905" lon="-1.40034">
        <ele>-15.72</ele>
        <time>2021-07-07T16:07:00Z</time>
      </trkpt>
      <trkpt lat="43.77886" lon="-1.39969">
        <ele>-15.24</ele>
        <time>2021-07-07T16:07:08Z</time>
      </trkpt>
      <trkpt lat="43.7788" lon="-1.39967">
        <ele>-14.76</ele>
        <time>2021-07-07T16:07:09Z</time>
      </trkpt>
      <trkpt lat="43.77876" lon="-1.39968">
        <ele>-14.76</ele>
        <time>2021-07-07T16:07:10Z</time>
      </trkpt>
      <trkpt lat="43.77871" lon="-1.39969">
        <ele>-15.24</ele>
        <time>2021-07-07T16:07:11Z</time>
      </trkpt>
      <trkpt lat="43.77866" lon="-1.39969">
        <ele>-15.72</ele>
        <time>2021-07-07T16:07:12Z</time>
      </trkpt>
      <trkpt lat="43.7781" lon="-1.39975">
        <ele>-14.76</ele>
        <time>2021-07-07T16:07:21Z</time>
      </trkpt>
      <trkpt lat="43.77803" lon="-1.39975">
        <ele>-14.28</ele>
        <time>2021-07-07T16:07:22Z</time>
      </trkpt>
      <trkpt lat="43.77797" lon="-1.39973">
        <ele>-14.28</ele>
        <time>2021-07-07T16:07:23Z</time>
      </trkpt>
      <trkpt lat="43.7774" lon="-1.39931">
        <ele>-15.72</ele>
        <time>2021-07-07T16:07:31Z</time>
      </trkpt>
      <trkpt lat="43.7774" lon="-1.39931">
        <ele>-15.24</ele>
        <time>2021-07-07T16:07:32Z</time>
      </trkpt>
      <trkpt lat="43.77714" lon="-1.39886">
        <ele>-14.28</ele>
        <time>2021-07-07T16:07:36Z</time>
      </trkpt>
      <trkpt lat="43.77708" lon="-1.3988">
        <ele>-14.76</ele>
        <time>2021-07-07T16:07:37Z</time>
      </trkpt>
      <trkpt lat="43.77704" lon="-1.39876">
        <ele>-15.72</ele>
        <time>2021-07-07T16:07:38Z</time>
      </trkpt>
      <trkpt lat="43.77697" lon="-1.39874">
        <ele>-15.72</ele>
        <time>2021-07-07T16:07:39Z</time>
      </trkpt>
      <trkpt lat="43.77697" lon="-1.39874">
        <ele>-16.69</ele>
        <time>2021-07-07T16:07:40Z</time>
      </trkpt>
      <trkpt lat="43.77682" lon="-1.39871">
        <ele>-16.69</ele>
        <time>2021-07-07T16:07:41Z</time>
      </trkpt>
      <trkpt lat="43.77682" lon="-1.39871">
        <ele>-17.17</ele>
        <time>2021-07-07T16:07:42Z</time>
      </trkpt>
      <trkpt lat="43.77676" lon="-1.3987">
        <ele>-17.65</ele>
        <time>2021-07-07T16:07:43Z</time>
      </trkpt>
      <trkpt lat="43.77662" lon="-1.39873">
        <ele>-18.13</ele>
        <time>2021-07-07T16:07:44Z</time>
      </trkpt>
      <trkpt lat="43.77602" lon="-1.39909">
        <ele>-20.05</ele>
        <time>2021-07-07T16:07:54Z</time>
      </trkpt>
      <trkpt lat="43.77595" lon="-1.39911">
        <ele>-20.05</ele>
        <time>2021-07-07T16:07:55Z</time>
      </trkpt>
      <trkpt lat="43.77589" lon="-1.39913">
        <ele>-20.05</ele>
        <time>2021-07-07T16:07:56Z</time>
      </trkpt>
      <trkpt lat="43.77581" lon="-1.39911">
        <ele>-20.53</ele>
        <time>2021-07-07T16:07:57Z</time>
      </trkpt>
      <trkpt lat="43.77566" lon="-1.39908">
        <ele>-20.05</ele>
        <time>2021-07-07T16:07:58Z</time>
      </trkpt>
      <trkpt lat="43.77566" lon="-1.39908">
        <ele>-18.61</ele>
        <time>2021-07-07T16:07:59Z</time>
      </trkpt>
      <trkpt lat="43.77558" lon="-1.39907">
        <ele>-18.13</ele>
        <time>2021-07-07T16:08:00Z</time>
      </trkpt>
      <trkpt lat="43.7755" lon="-1.39905">
        <ele>-17.65</ele>
        <time>2021-07-07T16:08:01Z</time>
      </trkpt>
      <trkpt lat="43.77543" lon="-1.39904">
        <ele>-17.65</ele>
        <time>2021-07-07T16:08:02Z</time>
      </trkpt>
      <trkpt lat="43.77536" lon="-1.399">
        <ele>-17.17</ele>
        <time>2021-07-07T16:08:03Z</time>
      </trkpt>
      <trkpt lat="43.77463" lon="-1.39853">
        <ele>-18.13</ele>
        <time>2021-07-07T16:08:14Z</time>
      </trkpt>
      <trkpt lat="43.77451" lon="-1.39844">
        <ele>-19.09</ele>
        <time>2021-07-07T16:08:16Z</time>
      </trkpt>
      <trkpt lat="43.77443" lon="-1.39839">
        <ele>-19.57</ele>
        <time>2021-07-07T16:08:17Z</time>
      </trkpt>
      <trkpt lat="43.77443" lon="-1.39839">
        <ele>-19.57</ele>
        <time>2021-07-07T16:08:18Z</time>
      </trkpt>
      <trkpt lat="43.77438" lon="-1.39836">
        <ele>-19.57</ele>
        <time>2021-07-07T16:08:19Z</time>
      </trkpt>
      <trkpt lat="43.77428" lon="-1.39839">
        <ele>-20.05</ele>
        <time>2021-07-07T16:08:20Z</time>
      </trkpt>
      <trkpt lat="43.77425" lon="-1.39845">
        <ele>-20.53</ele>
        <time>2021-07-07T16:08:21Z</time>
      </trkpt>
      <trkpt lat="43.77423" lon="-1.39851">
        <ele>-21.01</ele>
        <time>2021-07-07T16:08:22Z</time>
      </trkpt>
      <trkpt lat="43.77419" lon="-1.39858">
        <ele>-21.01</ele>
        <time>2021-07-07T16:08:23Z</time>
      </trkpt>
      <trkpt lat="43.77374" lon="-1.39971">
        <ele>-17.65</ele>
        <time>2021-07-07T16:08:36Z</time>
      </trkpt>
      <trkpt lat="43.77354" lon="-1.40069">
        <ele>-10.44</ele>
        <time>2021-07-07T16:08:46Z</time>
      </trkpt>
      <trkpt lat="43.77355" lon="-1.40137">
        <ele>-8.03</ele>
        <time>2021-07-07T16:08:52Z</time>
      </trkpt>
      <trkpt lat="43.77357" lon="-1.40177">
        <ele>-9</ele>
        <time>2021-07-07T16:08:56Z</time>
      </trkpt>
      <trkpt lat="43.77355" lon="-1.40185">
        <ele>-9</ele>
        <time>2021-07-07T16:08:57Z</time>
      </trkpt>
      <trkpt lat="43.77353" lon="-1.40201">
        <ele>-8.51</ele>
        <time>2021-07-07T16:08:59Z</time>
      </trkpt>
      <trkpt lat="43.77353" lon="-1.40208">
        <ele>-8.51</ele>
        <time>2021-07-07T16:09:00Z</time>
      </trkpt>
      <trkpt lat="43.77354" lon="-1.40214">
        <ele>-8.51</ele>
        <time>2021-07-07T16:09:01Z</time>
      </trkpt>
      <trkpt lat="43.77355" lon="-1.40219">
        <ele>-8.51</ele>
        <time>2021-07-07T16:09:02Z</time>
      </trkpt>
      <trkpt lat="43.77356" lon="-1.40223">
        <ele>-8.51</ele>
        <time>2021-07-07T16:09:03Z</time>
      </trkpt>
      <trkpt lat="43.77362" lon="-1.40238">
        <ele>-9.48</ele>
        <time>2021-07-07T16:09:06Z</time>
      </trkpt>
      <trkpt lat="43.77361" lon="-1.40243">
        <ele>-9.48</ele>
        <time>2021-07-07T16:09:07Z</time>
      </trkpt>
      <trkpt lat="43.77359" lon="-1.40247">
        <ele>-9.48</ele>
        <time>2021-07-07T16:09:08Z</time>
      </trkpt>
      <trkpt lat="43.77359" lon="-1.40261">
        <ele>-9</ele>
        <time>2021-07-07T16:09:11Z</time>
      </trkpt>
      <trkpt lat="43.77359" lon="-1.40261">
        <ele>-8.51</ele>
        <time>2021-07-07T16:09:12Z</time>
      </trkpt>
      <trkpt lat="43.77359" lon="-1.40267">
        <ele>-9</ele>
        <time>2021-07-07T16:09:13Z</time>
      </trkpt>
      <trkpt lat="43.77359" lon="-1.40273">
        <ele>-8.51</ele>
        <time>2021-07-07T16:09:14Z</time>
      </trkpt>
      <trkpt lat="43.77359" lon="-1.4028">
        <ele>-9</ele>
        <time>2021-07-07T16:09:15Z</time>
      </trkpt>
      <trkpt lat="43.77361" lon="-1.40286">
        <ele>-9.48</ele>
        <time>2021-07-07T16:09:16Z</time>
      </trkpt>
      <trkpt lat="43.77364" lon="-1.40294">
        <ele>-9.96</ele>
        <time>2021-07-07T16:09:17Z</time>
      </trkpt>
      <trkpt lat="43.77368" lon="-1.40303">
        <ele>-9.96</ele>
        <time>2021-07-07T16:09:18Z</time>
      </trkpt>
      <trkpt lat="43.77372" lon="-1.4031">
        <ele>-9.48</ele>
        <time>2021-07-07T16:09:19Z</time>
      </trkpt>
      <trkpt lat="43.77401" lon="-1.40344">
        <ele>-10.92</ele>
        <time>2021-07-07T16:09:24Z</time>
      </trkpt>
      <trkpt lat="43.77408" lon="-1.40352">
        <ele>-12.84</ele>
        <time>2021-07-07T16:09:25Z</time>
      </trkpt>
      <trkpt lat="43.77413" lon="-1.40361">
        <ele>-13.8</ele>
        <time>2021-07-07T16:09:26Z</time>
      </trkpt>
      <trkpt lat="43.77418" lon="-1.40374">
        <ele>-14.28</ele>
        <time>2021-07-07T16:09:27Z</time>
      </trkpt>
      <trkpt lat="43.77424" lon="-1.40388">
        <ele>-14.28</ele>
        <time>2021-07-07T16:09:28Z</time>
      </trkpt>
      <trkpt lat="43.77468" lon="-1.40499">
        <ele>-11.88</ele>
        <time>2021-07-07T16:09:38Z</time>
      </trkpt>
      <trkpt lat="43.7747" lon="-1.40508">
        <ele>-12.36</ele>
        <time>2021-07-07T16:09:39Z</time>
      </trkpt>
      <trkpt lat="43.77475" lon="-1.40552">
        <ele>-13.32</ele>
        <time>2021-07-07T16:09:42Z</time>
      </trkpt>
      <trkpt lat="43.77474" lon="-1.40565">
        <ele>-12.84</ele>
        <time>2021-07-07T16:09:43Z</time>
      </trkpt>
      <trkpt lat="43.77468" lon="-1.40725">
        <ele>-7.55</ele>
        <time>2021-07-07T16:09:58Z</time>
      </trkpt>
      <trkpt lat="43.77468" lon="-1.40799">
        <ele>-6.11</ele>
        <time>2021-07-07T16:10:07Z</time>
      </trkpt>
      <trkpt lat="43.77468" lon="-1.40807">
        <ele>-6.11</ele>
        <time>2021-07-07T16:10:08Z</time>
      </trkpt>
      <trkpt lat="43.77468" lon="-1.40814">
        <ele>-6.11</ele>
        <time>2021-07-07T16:10:09Z</time>
      </trkpt>
      <trkpt lat="43.77468" lon="-1.40821">
        <ele>-6.11</ele>
        <time>2021-07-07T16:10:10Z</time>
      </trkpt>
      <trkpt lat="43.77469" lon="-1.40828">
        <ele>-6.59</ele>
        <time>2021-07-07T16:10:11Z</time>
      </trkpt>
      <trkpt lat="43.77472" lon="-1.40835">
        <ele>-7.07</ele>
        <time>2021-07-07T16:10:12Z</time>
      </trkpt>
      <trkpt lat="43.77475" lon="-1.40841">
        <ele>-7.55</ele>
        <time>2021-07-07T16:10:13Z</time>
      </trkpt>
      <trkpt lat="43.77517" lon="-1.40929">
        <ele>-9.48</ele>
        <time>2021-07-07T16:10:26Z</time>
      </trkpt>
      <trkpt lat="43.77519" lon="-1.40936">
        <ele>-9</ele>
        <time>2021-07-07T16:10:27Z</time>
      </trkpt>
      <trkpt lat="43.77521" lon="-1.4095">
        <ele>-9</ele>
        <time>2021-07-07T16:10:28Z</time>
      </trkpt>
      <trkpt lat="43.77521" lon="-1.4095">
        <ele>-8.51</ele>
        <time>2021-07-07T16:10:29Z</time>
      </trkpt>
      <trkpt lat="43.77524" lon="-1.40964">
        <ele>-8.03</ele>
        <time>2021-07-07T16:10:30Z</time>
      </trkpt>
      <trkpt lat="43.77528" lon="-1.4101">
        <ele>-5.63</ele>
        <time>2021-07-07T16:10:40Z</time>
      </trkpt>
      <trkpt lat="43.7753" lon="-1.41034">
        <ele>-5.63</ele>
        <time>2021-07-07T16:10:51Z</time>
      </trkpt>
      <trkpt lat="43.7753" lon="-1.41034">
        <ele>-5.15</ele>
        <time>2021-07-07T16:11:18Z</time>
      </trkpt>
      <trkpt lat="43.7753" lon="-1.41034">
        <ele>-5.15</ele>
        <time>2021-07-07T16:11:22Z</time>
      </trkpt>
      <trkpt lat="43.7753" lon="-1.41041">
        <ele>-5.15</ele>
        <time>2021-07-07T16:11:23Z</time>
      </trkpt>
      <trkpt lat="43.7753" lon="-1.41041">
        <ele>-5.15</ele>
        <time>2021-07-07T16:11:24Z</time>
      </trkpt>
      <trkpt lat="43.7753" lon="-1.41041">
        <ele>-5.15</ele>
        <time>2021-07-07T16:11:25Z</time>
      </trkpt>
      <trkpt lat="43.7753" lon="-1.41031">
        <ele>-5.15</ele>
        <time>2021-07-07T16:11:26Z</time>
      </trkpt>
      <trkpt lat="43.77525" lon="-1.40973">
        <ele>-7.07</ele>
        <time>2021-07-07T16:11:42Z</time>
      </trkpt>
      <trkpt lat="43.77514" lon="-1.40918">
        <ele>-10.44</ele>
        <time>2021-07-07T16:11:54Z</time>
      </trkpt>
      <trkpt lat="43.77475" lon="-1.40841">
        <ele>-8.03</ele>
        <time>2021-07-07T16:12:07Z</time>
      </trkpt>
      <trkpt lat="43.77472" lon="-1.40835">
        <ele>-8.03</ele>
        <time>2021-07-07T16:12:08Z</time>
      </trkpt>
      <trkpt lat="43.77468" lon="-1.40815">
        <ele>-8.03</ele>
        <time>2021-07-07T16:12:10Z</time>
      </trkpt>
      <trkpt lat="43.77468" lon="-1.40809">
        <ele>-8.03</ele>
        <time>2021-07-07T16:12:11Z</time>
      </trkpt>
      <trkpt lat="43.77468" lon="-1.40809">
        <ele>-8.51</ele>
        <time>2021-07-07T16:12:12Z</time>
      </trkpt>
      <trkpt lat="43.77468" lon="-1.40735">
        <ele>-10.92</ele>
        <time>2021-07-07T16:12:21Z</time>
      </trkpt>
      <trkpt lat="43.77468" lon="-1.40735">
        <ele>-10.92</ele>
        <time>2021-07-07T16:12:22Z</time>
      </trkpt>
      <trkpt lat="43.77468" lon="-1.40714">
        <ele>-11.4</ele>
        <time>2021-07-07T16:12:31Z</time>
      </trkpt>
    </trkseg>
  </trk>
</gpx>